createdAt,value
2019-02-25T00:00:58.950Z,874.90
2019-02-25T00:01:58.705Z,874.95
2019-02-25T00:02:58.937Z,874.97
2019-02-25T00:03:58.920Z,874.94
2019-02-25T00:04:58.951Z,874.95
2019-02-25T00:05:58.685Z,874.94
2019-02-25T00:06:58.642Z,874.94
2019-02-25T00:07:58.680Z,874.98
2019-02-25T00:08:58.633Z,874.97
2019-02-25T00:09:58.871Z,874.98
2019-02-25T00:10:58.887Z,875.03
2019-02-25T00:11:58.613Z,875.01
2019-02-25T00:12:58.620Z,875.02
2019-02-25T00:13:58.860Z,875.07
2019-02-25T00:14:58.832Z,875.05
2019-02-25T00:15:58.591Z,875.07
2019-02-25T00:16:58.823Z,875.10
2019-02-25T00:17:58.573Z,875.11
2019-02-25T00:18:58.816Z,875.12
2019-02-25T00:19:58.822Z,875.11
2019-02-25T00:20:58.595Z,875.15
2019-02-25T00:21:58.821Z,875.16
2019-02-25T00:22:58.593Z,875.17
2019-02-25T00:23:58.790Z,875.20
2019-02-25T00:24:58.567Z,875.21
2019-02-25T00:25:58.805Z,875.24
2019-02-25T00:26:58.524Z,875.24
2019-02-25T00:27:58.778Z,875.24
2019-02-25T00:28:58.508Z,875.21
2019-02-25T00:29:58.788Z,875.26
2019-02-25T00:30:58.712Z,875.28
2019-02-25T00:31:58.782Z,875.28
2019-02-25T00:32:58.513Z,875.26
2019-02-25T00:33:58.755Z,875.26
2019-02-25T00:34:58.711Z,875.29
2019-02-25T00:35:58.693Z,875.25
2019-02-25T00:36:58.703Z,875.27
2019-02-25T00:37:58.482Z,875.29
2019-02-25T00:38:58.726Z,875.24
2019-02-25T00:39:58.443Z,875.27
2019-02-25T00:40:58.677Z,875.32
2019-02-25T00:41:58.672Z,875.30
2019-02-25T00:42:58.444Z,875.28
2019-02-25T00:43:58.670Z,875.29
2019-02-25T00:44:58.628Z,875.34
2019-02-25T00:45:58.663Z,875.33
2019-02-25T00:46:58.665Z,875.34
2019-02-25T00:47:58.662Z,875.34
2019-02-25T00:48:58.653Z,875.37
2019-02-25T00:49:58.620Z,875.37
2019-02-25T00:50:58.591Z,875.38
2019-02-25T00:51:58.608Z,875.38
2019-02-25T00:52:58.352Z,875.39
2019-02-25T00:53:58.335Z,875.37
2019-02-25T00:54:58.611Z,875.38
2019-02-25T00:55:58.334Z,875.44
2019-02-25T00:56:58.354Z,875.42
2019-02-25T00:57:58.594Z,875.37
2019-02-25T00:58:58.305Z,875.42
2019-02-25T00:59:58.583Z,875.41
2019-02-25T01:00:58.578Z,875.42
2019-02-25T01:01:58.275Z,875.43
2019-02-25T01:02:58.278Z,875.40
2019-02-25T01:03:58.528Z,875.43
2019-02-25T01:04:58.260Z,875.43
2019-02-25T01:05:58.509Z,875.45
2019-02-25T01:06:58.493Z,875.44
2019-02-25T01:07:58.281Z,875.44
2019-02-25T01:08:58.470Z,875.47
2019-02-25T01:09:58.511Z,875.47
2019-02-25T01:10:58.475Z,875.48
2019-02-25T01:11:58.505Z,875.45
2019-02-25T01:12:58.248Z,875.46
2019-02-25T01:13:58.262Z,875.45
2019-02-25T01:14:58.199Z,875.42
2019-02-25T01:15:58.420Z,875.47
2019-02-25T01:16:58.455Z,875.45
2019-02-25T01:17:59.938Z,875.45
2019-02-25T01:18:58.175Z,875.48
2019-02-25T01:19:58.413Z,875.44
2019-02-25T01:20:58.393Z,875.44
2019-02-25T01:21:58.407Z,875.44
2019-02-25T01:22:58.408Z,875.42
2019-02-25T01:23:58.411Z,875.40
2019-02-25T01:24:58.127Z,875.42
2019-02-25T01:25:58.394Z,875.45
2019-02-25T01:26:58.343Z,875.41
2019-02-25T01:27:58.121Z,875.40
2019-02-25T01:28:58.430Z,875.41
2019-02-25T01:29:58.134Z,875.43
2019-02-25T01:30:58.090Z,875.41
2019-02-25T01:31:58.351Z,875.47
2019-02-25T01:32:58.313Z,875.42
2019-02-25T01:33:58.086Z,875.44
2019-02-25T01:34:58.091Z,875.41
2019-02-25T01:35:58.299Z,875.40
2019-02-25T01:36:58.309Z,875.40
2019-02-25T01:37:58.305Z,875.42
2019-02-25T01:38:58.271Z,875.38
2019-02-25T01:39:58.269Z,875.34
2019-02-25T01:40:58.282Z,875.37
2019-02-25T01:41:58.274Z,875.39
2019-02-25T01:42:58.316Z,875.34
2019-02-25T01:43:58.000Z,875.33
2019-02-25T01:44:58.000Z,875.36
2019-02-25T01:45:58.253Z,875.35
2019-02-25T01:46:58.025Z,875.36
2019-02-25T01:47:58.196Z,875.37
2019-02-25T01:48:58.219Z,875.35
2019-02-25T01:49:58.186Z,875.36
2019-02-25T01:50:57.968Z,875.35
2019-02-25T01:51:58.221Z,875.34
2019-02-25T01:52:57.954Z,875.32
2019-02-25T01:53:58.226Z,875.28
2019-02-25T01:54:58.153Z,875.34
2019-02-25T01:55:58.643Z,875.31
2019-02-25T01:56:57.966Z,875.31
2019-02-25T01:57:58.162Z,875.30
2019-02-25T01:58:57.899Z,875.29
2019-02-25T01:59:58.173Z,875.30
2019-02-25T02:00:58.182Z,875.25
2019-02-25T02:01:58.155Z,875.27
2019-02-25T02:02:57.882Z,875.27
2019-02-25T02:03:57.906Z,875.26
2019-02-25T02:04:57.866Z,875.21
2019-02-25T02:05:58.103Z,875.20
2019-02-25T02:06:58.111Z,875.23
2019-02-25T02:07:57.890Z,875.23
2019-02-25T02:08:58.110Z,875.23
2019-02-25T02:09:57.874Z,875.20
2019-02-25T02:10:58.118Z,875.21
2019-02-25T02:11:58.084Z,875.22
2019-02-25T02:12:58.077Z,875.19
2019-02-25T02:13:58.094Z,875.17
2019-02-25T02:14:58.037Z,875.20
2019-02-25T02:15:57.845Z,875.15
2019-02-25T02:16:57.792Z,875.16
2019-02-25T02:17:57.816Z,875.12
2019-02-25T02:18:57.762Z,875.09
2019-02-25T02:21:29.907Z,875.10
2019-02-25T02:22:29.079Z,875.10
2019-02-25T02:24:22.444Z,875.12
2019-02-25T02:25:22.195Z,875.09
2019-02-25T02:27:14.979Z,875.12
2019-02-25T02:28:14.784Z,875.12
2019-02-25T02:30:07.132Z,875.14
2019-02-25T02:31:07.145Z,875.09
2019-02-25T02:33:00.139Z,875.13
2019-02-25T02:34:00.369Z,875.09
2019-02-25T02:35:51.635Z,874.99
2019-02-25T02:36:52.219Z,875.00
2019-02-25T02:38:45.469Z,875.01
2019-02-25T02:39:45.174Z,875.01
2019-02-25T02:41:37.549Z,874.99
2019-02-25T02:42:37.294Z,874.99
2019-02-25T02:44:30.896Z,874.99
2019-02-25T02:45:30.670Z,875.01
2019-02-25T02:47:22.982Z,875.00
2019-02-25T02:48:23.275Z,875.02
2019-02-25T02:50:15.600Z,875.03
2019-02-25T02:51:15.331Z,875.02
2019-02-25T02:53:08.701Z,874.95
2019-02-25T02:54:08.714Z,874.95
2019-02-25T02:56:02.462Z,874.98
2019-02-25T02:57:02.044Z,874.97
2019-02-25T02:58:54.386Z,874.88
2019-02-25T02:59:54.629Z,874.89
2019-02-25T03:01:48.247Z,874.87
2019-02-25T03:02:47.732Z,874.84
2019-02-25T03:04:40.175Z,874.86
2019-02-25T03:05:40.365Z,874.88
2019-02-25T03:07:33.991Z,874.83
2019-02-25T03:08:33.699Z,874.83
2019-02-25T03:10:27.037Z,874.82
2019-02-25T03:11:26.807Z,874.81
2019-02-25T03:13:20.385Z,874.83
2019-02-25T03:14:20.402Z,874.79
2019-02-25T03:16:12.498Z,874.84
2019-02-25T03:17:12.689Z,874.82
2019-02-25T03:18:12.445Z,874.84
2019-02-25T03:19:12.685Z,874.81
2019-02-25T03:20:12.661Z,874.83
2019-02-25T03:21:12.421Z,874.79
2019-02-25T03:22:12.701Z,874.79
2019-02-25T03:23:12.821Z,874.80
2019-02-25T03:24:12.632Z,874.78
2019-02-25T03:25:12.435Z,874.76
2019-02-25T03:26:12.675Z,874.75
2019-02-25T03:27:12.388Z,874.74
2019-02-25T03:28:12.617Z,874.70
2019-02-25T03:29:12.629Z,874.71
2019-02-25T03:30:12.590Z,874.68
2019-02-25T03:31:12.384Z,874.71
2019-02-25T03:32:12.602Z,874.68
2019-02-25T03:33:12.373Z,874.62
2019-02-25T03:34:12.383Z,874.64
2019-02-25T03:35:12.565Z,874.64
2019-02-25T03:36:12.568Z,874.62
2019-02-25T03:37:12.326Z,874.63
2019-02-25T03:38:12.316Z,874.62
2019-02-25T03:39:12.355Z,874.63
2019-02-25T03:40:12.327Z,874.59
2019-02-25T03:41:12.334Z,874.60
2019-02-25T03:42:12.290Z,874.58
2019-02-25T03:43:12.546Z,874.57
2019-02-25T03:44:12.302Z,874.59
2019-02-25T03:46:45.287Z,874.54
2019-02-25T03:47:44.170Z,874.55
2019-02-25T03:49:36.373Z,874.51
2019-02-25T03:50:36.737Z,874.53
2019-02-25T03:52:29.135Z,874.54
2019-02-25T03:53:28.856Z,874.54
2019-02-25T03:55:21.009Z,874.50
2019-02-25T03:56:21.239Z,874.49
2019-02-25T03:58:13.775Z,874.46
2019-02-25T03:59:13.313Z,874.45
2019-02-25T04:01:05.659Z,874.42
2019-02-25T04:02:05.867Z,874.40
2019-02-25T04:04:11.202Z,874.37
2019-02-25T04:04:58.476Z,874.33
2019-02-25T04:06:50.551Z,874.34
2019-02-25T04:07:50.585Z,874.33
2019-02-25T04:09:43.380Z,874.31
2019-02-25T04:10:43.137Z,874.31
2019-02-25T04:12:35.012Z,874.30
2019-02-25T04:13:35.282Z,874.30
2019-02-25T04:15:28.964Z,874.28
2019-02-25T04:16:28.607Z,874.26
2019-02-25T04:18:20.937Z,874.24
2019-02-25T04:19:20.945Z,874.21
2019-02-25T04:21:14.307Z,874.25
2019-02-25T04:22:14.271Z,874.21
2019-02-25T04:24:06.409Z,874.17
2019-02-25T04:25:06.391Z,874.13
2019-02-25T04:28:30.302Z,874.16
2019-02-25T04:29:30.021Z,874.11
2019-02-25T04:31:22.277Z,874.05
2019-02-25T04:32:22.209Z,874.07
2019-02-25T04:34:14.733Z,874.05
2019-02-25T04:35:14.470Z,874.04
2019-02-25T04:37:06.925Z,874.04
2019-02-25T04:38:07.085Z,874.02
2019-02-25T04:40:00.586Z,873.97
2019-02-25T04:41:00.419Z,873.98
2019-02-25T04:42:53.782Z,873.95
2019-02-25T04:43:54.097Z,873.90
2019-02-25T04:45:46.361Z,873.90
2019-02-25T04:46:45.860Z,873.91
2019-02-25T04:48:38.618Z,873.88
2019-02-25T04:49:38.236Z,873.87
2019-02-25T04:51:31.804Z,873.85
2019-02-25T04:52:31.588Z,873.86
2019-02-25T04:54:24.185Z,873.81
2019-02-25T04:55:24.152Z,873.80
2019-02-25T04:58:47.791Z,873.74
2019-02-25T04:59:47.546Z,873.72
2019-02-25T05:01:40.774Z,873.68
2019-02-25T05:02:40.519Z,873.64
2019-02-25T05:04:34.321Z,873.64
2019-02-25T05:05:32.969Z,873.63
2019-02-25T05:07:25.920Z,873.58
2019-02-25T05:08:25.213Z,873.58
2019-02-25T05:10:18.182Z,873.54
2019-02-25T05:11:17.995Z,873.52
2019-02-25T05:13:10.496Z,873.46
2019-02-25T05:14:10.359Z,873.45
2019-02-25T05:16:03.008Z,873.43
2019-02-25T05:17:03.294Z,873.45
2019-02-25T05:18:55.145Z,873.40
2019-02-25T05:19:54.879Z,873.43
2019-02-25T05:21:47.473Z,873.39
2019-02-25T05:22:47.558Z,873.36
2019-02-25T05:24:39.857Z,873.36
2019-02-25T05:25:39.800Z,873.34
2019-02-25T05:27:32.353Z,873.34
2019-02-25T05:28:32.874Z,873.29
2019-02-25T05:30:25.098Z,873.33
2019-02-25T05:31:25.506Z,873.29
2019-02-25T05:33:17.548Z,873.28
2019-02-25T05:34:17.200Z,873.26
2019-02-25T05:36:09.811Z,873.23
2019-02-25T05:37:09.791Z,873.20
2019-02-25T05:41:55.172Z,873.14
2019-02-25T05:42:54.356Z,873.12
2019-02-25T05:44:46.973Z,873.12
2019-02-25T05:45:46.949Z,873.09
2019-02-25T05:47:40.115Z,873.09
2019-02-25T05:48:40.075Z,873.07
2019-02-25T05:50:32.998Z,873.05
2019-02-25T05:51:32.148Z,873.03
2019-02-25T05:53:25.590Z,872.99
2019-02-25T05:54:25.758Z,872.99
2019-02-25T05:56:20.413Z,872.93
2019-02-25T05:57:18.810Z,872.90
2019-02-25T05:59:10.691Z,872.91
2019-02-25T06:00:10.654Z,872.88
2019-02-25T06:02:02.471Z,872.87
2019-02-25T06:03:02.473Z,872.86
2019-02-25T06:04:54.956Z,872.82
2019-02-25T06:05:54.823Z,872.83
2019-02-25T06:07:48.141Z,872.81
2019-02-25T06:08:47.921Z,872.83
2019-02-25T06:10:41.305Z,872.81
2019-02-25T06:11:41.324Z,872.78
2019-02-25T06:13:42.743Z,872.76
2019-02-25T06:14:33.395Z,872.79
2019-02-25T06:16:25.929Z,872.80
2019-02-25T06:17:25.853Z,872.74
2019-02-25T06:19:18.720Z,872.72
2019-02-25T06:20:18.294Z,872.68
2019-02-25T06:22:10.641Z,872.68
2019-02-25T06:23:10.615Z,872.69
2019-02-25T06:25:04.057Z,872.67
2019-02-25T06:26:03.161Z,872.61
2019-02-25T06:27:55.284Z,872.59
2019-02-25T06:28:55.517Z,872.59
2019-02-25T06:30:49.070Z,872.63
2019-02-25T06:33:41.072Z,872.58
2019-02-25T06:34:41.799Z,872.51
2019-02-25T06:36:33.483Z,872.56
2019-02-25T06:37:33.310Z,872.53
2019-02-25T06:39:25.690Z,872.52
2019-02-25T06:40:26.493Z,872.55
2019-02-25T06:42:18.318Z,872.54
2019-02-25T06:43:18.636Z,872.49
2019-02-25T06:45:10.351Z,872.54
2019-02-25T06:46:10.586Z,872.50
2019-02-25T06:48:03.305Z,872.51
2019-02-25T06:49:02.919Z,872.47
2019-02-25T06:50:55.116Z,872.45
2019-02-25T06:51:55.011Z,872.48
2019-02-25T06:53:47.808Z,872.43
2019-02-25T06:56:39.798Z,872.45
2019-02-25T06:57:39.944Z,872.41
2019-02-25T06:59:33.257Z,872.44
2019-02-25T07:00:33.293Z,872.41
2019-02-25T07:02:25.265Z,872.37
2019-02-25T07:03:25.125Z,872.35
2019-02-25T07:05:17.723Z,872.40
2019-02-25T07:06:17.517Z,872.37
2019-02-25T07:08:10.445Z,872.41
2019-02-25T07:09:10.071Z,872.37
2019-02-25T07:11:02.471Z,872.34
2019-02-25T07:12:02.023Z,872.38
2019-02-25T07:13:54.637Z,872.41
2019-02-25T07:14:54.597Z,872.40
2019-02-25T07:16:47.209Z,872.37
2019-02-25T07:17:46.946Z,872.37
2019-02-25T07:19:39.373Z,872.32
2019-02-25T07:20:39.478Z,872.32
2019-02-25T07:22:31.915Z,872.30
2019-02-25T07:23:31.907Z,872.27
2019-02-25T07:25:42.657Z,872.26
2019-02-25T07:26:24.384Z,872.27
2019-02-25T07:28:17.119Z,872.25
2019-02-25T07:29:16.524Z,872.27
2019-02-25T07:31:09.155Z,872.23
2019-02-25T07:32:09.081Z,872.20
2019-02-25T07:34:01.353Z,872.20
2019-02-25T07:35:01.407Z,872.19
2019-02-25T07:36:53.588Z,872.21
2019-02-25T07:37:53.541Z,872.17
2019-02-25T07:39:46.307Z,872.19
2019-02-25T07:40:46.138Z,872.16
2019-02-25T07:42:39.982Z,872.15
2019-02-25T07:43:39.261Z,872.20
2019-02-25T07:45:34.195Z,872.16
2019-02-25T07:46:32.773Z,872.16
2019-02-25T07:48:26.497Z,872.15
2019-02-25T07:49:25.887Z,872.14
2019-02-25T07:51:18.780Z,872.12
2019-02-25T07:52:18.482Z,872.09
2019-02-25T07:54:11.926Z,872.11
2019-02-25T07:55:11.844Z,872.14
2019-02-25T07:57:04.960Z,872.10
2019-02-25T07:58:04.370Z,872.09
2019-02-25T07:59:56.728Z,872.07
2019-02-25T08:00:56.715Z,872.04
2019-02-25T08:02:49.306Z,872.00
2019-02-25T08:03:49.231Z,872.05
2019-02-25T08:05:41.460Z,872.03
2019-02-25T08:06:41.162Z,872.02
2019-02-25T08:08:34.051Z,872.09
2019-02-25T08:09:33.948Z,872.05
2019-02-25T08:11:25.648Z,872.03
2019-02-25T08:12:25.340Z,872.03
2019-02-25T08:14:18.222Z,872.02
2019-02-25T08:15:19.265Z,872.01
2019-02-25T08:17:14.541Z,872.00
2019-02-25T08:18:10.831Z,871.99
2019-02-25T08:20:03.558Z,871.99
2019-02-25T08:21:03.118Z,871.97
2019-02-25T08:22:55.848Z,871.98
2019-02-25T08:23:55.820Z,872.01
2019-02-25T08:25:48.164Z,871.99
2019-02-25T08:26:48.095Z,872.02
2019-02-25T08:28:40.318Z,871.98
2019-02-25T08:29:40.464Z,871.98
2019-02-25T08:31:32.258Z,871.98
2019-02-25T08:32:32.317Z,872.00
2019-02-25T08:34:23.885Z,871.96
2019-02-25T08:35:23.916Z,872.00
2019-02-25T08:37:16.677Z,871.94
2019-02-25T08:38:16.444Z,871.96
2019-02-25T08:40:08.845Z,871.96
2019-02-25T08:41:08.582Z,871.99
2019-02-25T08:43:01.361Z,871.99
2019-02-25T08:44:00.900Z,871.98
2019-02-25T08:45:53.500Z,871.95
2019-02-25T08:48:06.161Z,871.98
2019-02-25T08:49:05.598Z,872.00
2019-02-25T08:50:58.148Z,871.97
2019-02-25T08:51:57.880Z,871.96
2019-02-25T08:53:50.743Z,871.93
2019-02-25T08:54:50.261Z,871.95
2019-02-25T08:56:42.116Z,871.97
2019-02-25T08:57:42.350Z,871.94
2019-02-25T08:59:34.909Z,871.94
2019-02-25T09:00:34.434Z,871.90
2019-02-25T09:02:26.790Z,871.95
2019-02-25T09:03:27.051Z,871.90
2019-02-25T09:05:19.378Z,871.95
2019-02-25T09:06:19.415Z,871.92
2019-02-25T09:08:11.478Z,871.92
2019-02-25T09:09:11.705Z,871.88
2019-02-25T09:11:04.082Z,871.88
2019-02-25T09:12:03.782Z,871.88
2019-02-25T09:13:55.673Z,871.88
2019-02-25T09:14:55.888Z,871.91
2019-02-25T09:16:48.465Z,871.93
2019-02-25T09:17:47.977Z,871.92
2019-02-25T09:21:11.755Z,871.90
2019-02-25T09:22:11.769Z,871.93
2019-02-25T09:24:04.086Z,871.90
2019-02-25T09:25:04.103Z,871.93
2019-02-25T09:26:56.543Z,871.90
2019-02-25T09:27:56.617Z,871.86
2019-02-25T09:29:48.980Z,871.83
2019-02-25T09:30:48.775Z,871.85
2019-02-25T09:32:40.854Z,871.85
2019-02-25T09:33:41.090Z,871.86
2019-02-25T09:35:33.423Z,871.84
2019-02-25T09:36:33.466Z,871.84
2019-02-25T09:38:25.539Z,871.85
2019-02-25T09:39:25.539Z,871.82
2019-02-25T09:41:18.013Z,871.84
2019-02-25T09:42:17.863Z,871.82
2019-02-25T09:44:10.428Z,871.81
2019-02-25T09:45:10.381Z,871.82
2019-02-25T09:47:02.733Z,871.83
2019-02-25T09:48:02.535Z,871.82
2019-02-25T09:49:55.783Z,871.81
2019-02-25T09:50:55.548Z,871.82
2019-02-25T09:52:48.081Z,871.81
2019-02-25T09:53:48.079Z,871.84
2019-02-25T09:55:40.485Z,871.83
2019-02-25T09:56:40.598Z,871.82
2019-02-25T09:58:32.992Z,871.80
2019-02-25T09:59:32.574Z,871.81
2019-02-25T10:01:25.248Z,871.85
2019-02-25T10:02:24.969Z,871.80
2019-02-25T10:04:17.524Z,871.78
2019-02-25T10:05:17.204Z,871.80
2019-02-25T10:07:09.827Z,871.83
2019-02-25T10:08:09.866Z,871.85
2019-02-25T10:10:02.211Z,871.85
2019-02-25T10:11:01.902Z,871.84
2019-02-25T10:12:54.289Z,871.85
2019-02-25T10:13:54.282Z,871.86
2019-02-25T10:15:47.051Z,871.85
2019-02-25T10:16:46.654Z,871.86
2019-02-25T10:18:39.214Z,871.85
2019-02-25T10:19:38.951Z,871.87
2019-02-25T10:21:32.388Z,871.90
2019-02-25T10:22:32.815Z,871.89
2019-02-25T10:24:23.978Z,871.87
2019-02-25T10:25:23.928Z,871.86
2019-02-25T10:27:16.253Z,871.87
2019-02-25T10:28:15.979Z,871.87
2019-02-25T10:30:08.601Z,871.90
2019-02-25T10:31:08.586Z,871.90
2019-02-25T10:34:32.624Z,871.92
2019-02-25T10:35:32.182Z,871.87
2019-02-25T10:37:24.799Z,871.88
2019-02-25T10:38:24.707Z,871.92
2019-02-25T10:40:19.084Z,871.86
2019-02-25T10:41:18.920Z,871.87
2019-02-25T10:43:09.312Z,871.87
2019-02-25T10:44:09.444Z,871.93
2019-02-25T10:46:02.170Z,871.91
2019-02-25T10:47:01.716Z,871.93
2019-02-25T10:48:56.330Z,871.91
2019-02-25T10:49:56.436Z,871.91
2019-02-25T10:51:50.618Z,871.96
2019-02-25T10:52:49.616Z,871.94
2019-02-25T10:54:43.264Z,871.95
2019-02-25T10:55:44.967Z,871.97
2019-02-25T10:57:36.849Z,871.99
2019-02-25T10:58:36.349Z,872.00
2019-02-25T11:00:29.444Z,872.00
2019-02-25T11:01:29.258Z,872.05
2019-02-25T11:03:23.014Z,872.05
2019-02-25T11:04:23.915Z,872.06
2019-02-25T11:06:15.147Z,872.08
2019-02-25T11:07:14.864Z,872.12
2019-02-25T11:09:08.962Z,872.14
2019-02-25T11:10:07.499Z,872.10
2019-02-25T11:12:00.216Z,872.15
2019-02-25T11:13:01.918Z,872.19
2019-02-25T11:14:52.515Z,872.20
2019-02-25T11:15:52.251Z,872.19
2019-02-25T11:17:45.535Z,872.21
2019-02-25T11:18:44.353Z,872.21
2019-02-25T11:20:37.807Z,872.21
2019-02-25T11:21:37.602Z,872.22
2019-02-25T11:23:29.294Z,872.25
2019-02-25T11:24:29.263Z,872.24
2019-02-25T11:26:23.620Z,872.25
2019-02-25T11:27:21.416Z,872.31
2019-02-25T11:29:16.186Z,872.26
2019-02-25T11:30:14.291Z,872.26
2019-02-25T11:32:06.525Z,872.30
2019-02-25T11:33:06.291Z,872.33
2019-02-25T11:35:01.181Z,872.32
2019-02-25T11:35:58.631Z,872.37
2019-02-25T11:37:51.993Z,872.34
2019-02-25T11:38:50.975Z,872.37
2019-02-25T11:40:43.059Z,872.40
2019-02-25T11:41:43.357Z,872.39
2019-02-25T11:43:35.938Z,872.41
2019-02-25T11:44:35.650Z,872.40
2019-02-25T11:46:27.762Z,872.40
2019-02-25T11:47:27.733Z,872.43
2019-02-25T11:49:20.529Z,872.43
2019-02-25T11:50:20.295Z,872.47
2019-02-25T11:52:12.654Z,872.51
2019-02-25T11:53:12.668Z,872.52
2019-02-25T11:55:05.249Z,872.56
2019-02-25T11:56:05.046Z,872.56
2019-02-25T11:57:57.337Z,872.59
2019-02-25T11:58:57.375Z,872.59
2019-02-25T11:59:57.089Z,872.58
2019-02-25T12:00:57.326Z,872.64
2019-02-25T12:01:57.064Z,872.64
2019-02-25T12:02:57.338Z,872.63
2019-02-25T12:03:57.291Z,872.66
2019-02-25T12:04:57.286Z,872.63
2019-02-25T12:05:57.386Z,872.62
2019-02-25T12:06:57.295Z,872.64
2019-02-25T12:07:57.256Z,872.68
2019-02-25T12:08:57.258Z,872.67
2019-02-25T12:09:57.018Z,872.66
2019-02-25T12:10:57.013Z,872.69
2019-02-25T12:11:57.291Z,872.67
2019-02-25T12:12:57.047Z,872.69
2019-02-25T12:13:56.980Z,872.66
2019-02-25T12:14:57.238Z,872.67
2019-02-25T12:15:56.986Z,872.67
2019-02-25T12:16:57.260Z,872.63
2019-02-25T12:17:56.970Z,872.65
2019-02-25T12:18:57.186Z,872.66
2019-02-25T12:19:56.937Z,872.63
2019-02-25T12:20:56.938Z,872.63
2019-02-25T12:21:56.928Z,872.63
2019-02-25T12:22:57.176Z,872.65
2019-02-25T12:23:57.166Z,872.65
2019-02-25T12:24:57.180Z,872.63
2019-02-25T12:25:56.950Z,872.63
2019-02-25T12:26:57.170Z,872.62
2019-02-25T12:27:56.929Z,872.63
2019-02-25T12:28:57.164Z,872.63
2019-02-25T12:29:57.137Z,872.67
2019-02-25T12:30:56.873Z,872.65
2019-02-25T12:31:56.903Z,872.62
2019-02-25T12:32:57.135Z,872.64
2019-02-25T12:33:56.852Z,872.61
2019-02-25T12:34:56.882Z,872.60
2019-02-25T12:35:56.881Z,872.58
2019-02-25T12:36:56.860Z,872.60
2019-02-25T12:37:56.855Z,872.59
2019-02-25T12:38:56.859Z,872.58
2019-02-25T12:39:56.806Z,872.58
2019-02-25T12:40:56.847Z,872.57
2019-02-25T12:41:57.047Z,872.59
2019-02-25T12:42:57.016Z,872.60
2019-02-25T12:43:56.795Z,872.60
2019-02-25T12:44:57.046Z,872.63
2019-02-25T12:45:56.814Z,872.60
2019-02-25T12:46:56.761Z,872.61
2019-02-25T12:47:57.052Z,872.63
2019-02-25T12:48:56.756Z,872.60
2019-02-25T12:49:56.779Z,872.63
2019-02-25T12:50:57.015Z,872.67
2019-02-25T12:51:56.758Z,872.65
2019-02-25T12:52:57.012Z,872.68
2019-02-25T12:53:56.984Z,872.70
2019-02-25T12:54:56.995Z,872.67
2019-02-25T12:55:56.736Z,872.69
2019-02-25T12:56:56.703Z,872.69
2019-02-25T12:57:56.977Z,872.70
2019-02-25T12:58:56.929Z,872.68
2019-02-25T12:59:56.940Z,872.67
2019-02-25T13:00:56.930Z,872.76
2019-02-25T13:01:56.898Z,872.77
2019-02-25T13:02:56.681Z,872.71
2019-02-25T13:03:56.640Z,872.76
2019-02-25T13:04:56.674Z,872.74
2019-02-25T13:05:56.968Z,872.79
2019-02-25T13:06:56.663Z,872.76
2019-02-25T13:07:56.867Z,872.73
2019-02-25T13:08:56.617Z,872.74
2019-02-25T13:09:56.613Z,872.77
2019-02-25T13:10:57.119Z,872.73
2019-02-25T13:11:56.850Z,872.77
2019-02-25T13:12:56.839Z,872.74
2019-02-25T13:13:56.576Z,872.77
2019-02-25T13:14:56.587Z,872.77
2019-02-25T13:15:56.563Z,872.74
2019-02-25T13:16:56.860Z,872.77
2019-02-25T13:17:56.551Z,872.76
2019-02-25T13:18:56.572Z,872.79
2019-02-25T13:19:56.565Z,872.77
2019-02-25T13:20:56.578Z,872.78
2019-02-25T13:21:56.566Z,872.76
2019-02-25T13:22:56.789Z,872.80
2019-02-25T13:23:57.468Z,872.77
2019-02-25T13:24:56.783Z,872.78
2019-02-25T13:25:56.805Z,872.79
2019-02-25T13:26:56.518Z,872.79
2019-02-25T13:27:58.775Z,872.81
2019-02-25T13:28:56.532Z,872.83
2019-02-25T13:29:57.321Z,872.80
2019-02-25T13:30:58.693Z,872.81
2019-02-25T13:31:56.709Z,872.84
2019-02-25T13:32:56.492Z,872.82
2019-02-25T13:33:56.734Z,872.84
2019-02-25T13:34:56.447Z,872.91
2019-02-25T13:35:57.185Z,872.82
2019-02-25T13:36:56.467Z,872.83
2019-02-25T13:37:56.465Z,872.84
2019-02-25T13:38:56.661Z,872.87
2019-02-25T13:39:56.684Z,872.85
2019-02-25T13:40:56.666Z,872.86
2019-02-25T13:41:56.662Z,872.82
2019-02-25T13:42:56.629Z,872.81
2019-02-25T13:43:56.421Z,872.83
2019-02-25T13:44:56.607Z,872.84
2019-02-25T13:45:56.409Z,872.85
2019-02-25T13:46:56.357Z,872.83
2019-02-25T13:47:56.654Z,872.86
2019-02-25T13:48:57.527Z,872.85
2019-02-25T13:49:56.611Z,872.82
2019-02-25T13:50:56.567Z,872.84
2019-02-25T13:51:56.324Z,872.87
2019-02-25T13:52:56.575Z,872.85
2019-02-25T13:53:56.614Z,872.86
2019-02-25T13:54:56.612Z,872.85
2019-02-25T13:55:56.536Z,872.87
2019-02-25T13:56:56.326Z,872.87
2019-02-25T13:57:57.684Z,872.87
2019-02-25T13:58:56.541Z,872.87
2019-02-25T13:59:56.282Z,872.90
2019-02-25T14:00:56.524Z,872.88
2019-02-25T14:01:56.301Z,872.91
2019-02-25T14:02:56.504Z,872.90
2019-02-25T14:03:56.290Z,872.93
2019-02-25T14:04:56.467Z,872.93
2019-02-25T14:05:56.504Z,872.93
2019-02-25T14:06:56.484Z,872.91
2019-02-25T14:07:56.254Z,872.97
2019-02-25T14:08:56.487Z,872.92
2019-02-25T14:09:56.503Z,872.93
2019-02-25T14:10:56.232Z,872.93
2019-02-25T14:11:56.452Z,872.93
2019-02-25T14:12:56.189Z,872.94
2019-02-25T14:13:56.229Z,872.97
2019-02-25T14:14:56.201Z,872.93
2019-02-25T14:15:56.163Z,872.94
2019-02-25T14:16:56.397Z,872.93
2019-02-25T14:17:56.156Z,872.98
2019-02-25T14:18:56.418Z,872.93
2019-02-25T14:19:56.129Z,872.95
2019-02-25T14:20:56.390Z,872.94
2019-02-25T14:21:56.352Z,872.94
2019-02-25T14:22:56.148Z,872.93
2019-02-25T14:23:57.671Z,872.94
2019-02-25T14:24:56.351Z,872.96
2019-02-25T14:25:57.260Z,872.93
2019-02-25T14:26:56.362Z,872.94
2019-02-25T14:27:56.103Z,872.92
2019-02-25T14:28:56.307Z,872.92
2019-02-25T14:29:56.113Z,872.97
2019-02-25T14:30:56.346Z,872.94
2019-02-25T14:31:56.342Z,872.94
2019-02-25T14:32:56.324Z,873.02
2019-02-25T14:33:56.334Z,872.97
2019-02-25T14:34:56.073Z,872.98
2019-02-25T14:35:56.314Z,873.00
2019-02-25T14:36:57.202Z,873.03
2019-02-25T14:37:57.659Z,873.00
2019-02-25T14:38:56.821Z,873.00
2019-02-25T14:39:56.682Z,872.94
2019-02-25T14:40:56.772Z,872.95
2019-02-25T14:41:58.738Z,872.93
2019-02-25T14:42:56.790Z,872.93
2019-02-25T14:43:56.693Z,872.95
2019-02-25T14:44:56.380Z,872.91
2019-02-25T14:45:56.868Z,872.98
2019-02-25T14:46:56.617Z,872.94
2019-02-25T14:47:59.497Z,872.93
2019-02-25T14:48:56.203Z,872.96
2019-02-25T14:49:55.970Z,872.90
2019-02-25T14:50:55.968Z,872.89
2019-02-25T14:51:56.214Z,872.91
2019-02-25T14:52:56.209Z,872.92
2019-02-25T14:53:55.913Z,872.94
2019-02-25T14:54:55.941Z,872.90
2019-02-25T14:55:58.148Z,872.94
2019-02-25T14:56:57.133Z,872.93
2019-02-25T14:57:59.971Z,872.90
2019-02-25T14:58:55.880Z,872.91
2019-02-25T14:59:56.133Z,872.94
2019-02-25T15:00:55.874Z,872.96
2019-02-25T15:01:56.991Z,872.93
2019-02-25T15:02:55.844Z,872.93
2019-02-25T15:03:57.643Z,872.92
2019-02-25T15:04:55.878Z,872.95
2019-02-25T15:05:57.074Z,872.92
2019-02-25T15:06:55.834Z,872.97
2019-02-25T15:07:56.074Z,872.93
2019-02-25T15:08:57.532Z,872.95
2019-02-25T15:09:57.955Z,872.93
2019-02-25T15:11:00.002Z,872.98
2019-02-25T15:11:57.921Z,872.98
2019-02-25T15:12:58.764Z,872.95
2019-02-25T15:13:55.778Z,872.95
2019-02-25T15:14:55.814Z,872.96
2019-02-25T15:15:55.810Z,872.97
2019-02-25T15:16:56.505Z,872.99
2019-02-25T15:17:55.785Z,873.00
2019-02-25T15:18:56.040Z,873.01
2019-02-25T15:19:56.032Z,873.02
2019-02-25T15:20:56.455Z,873.02
2019-02-25T15:21:56.448Z,873.03
2019-02-25T15:22:56.064Z,872.99
2019-02-25T15:23:55.711Z,873.01
2019-02-25T15:24:57.089Z,873.06
2019-02-25T15:26:04.840Z,873.03
2019-02-25T15:26:57.493Z,873.02